Weather observations for the past three days for
Leesburg / Godfrey
Imperial (Metric)
Date Time (edt) Wind (mph) Vis. (mi.) Weather Sky Cond. Temperature (ºF) Relative Humidity Wind Chill (°F) Heat Index (°F) Pressure Precipitation (in)
Air Dwpt 6 hour altimeter (in) sea level (mb) 1 hr 3 hr 6 hr
Max. Min.
06 19:55 NW 9 10.00 Overcast BKN022 OVC034 68 64.4 88% 29.82 0.0
06 19:35 SW 5 10.00 Overcast SCT024 BKN034 OVC050 68 64.4 88% 29.8 0.0
06 19:15 SW 5 10.00 Overcast SCT027 BKN036 OVC049 68 64.4 88% 29.79 0.0
06 18:55 S 7 10.00 Overcast BKN026 BKN034 OVC044 69.8 64.4 83% 29.79 0.0
06 18:35 SW 6 10.00 Overcast OVC024 69.8 62.6 78% 29.79 0.0
06 18:15 S 8 10.00 Overcast OVC024 69.8 62.6 78% 29.79 0.0
06 17:55 S 6 10.00 Overcast OVC024 69.8 64.4 83% 29.78 0.0
06 17:35 S 7 10.00 Overcast BKN024 BKN046 OVC055 69.8 62.6 78% 29.78 0.0
06 17:15 SW 7 10.00 Overcast SCT024 BKN065 OVC090 69.8 62.6 78% 29.77 0.0
06 16:55 SW 7 10.00 Overcast SCT024 SCT050 OVC090 69.8 62.6 78% 29.77 0.0
06 16:35 S 12 10.00 Mostly Cloudy SCT065 BKN085 69.8 62.6 78% 29.77 0.0
06 16:15 S 13 10.00 Mostly Cloudy SCT020 SCT065 BKN085 71.6 64.4 78% 29.77 0.0
06 15:55 SW 8 10.00 Overcast SCT019 OVC085 71.6 64.4 78% 29.77 0.0
06 15:35 S 12 G 16 10.00 Overcast SCT019 OVC085 69.8 62.6 78% 29.77 0.0
06 15:15 S 13 G 17 10.00 Mostly Cloudy BKN019 BKN085 69.8 62.6 78% 29.78 0.0
06 14:55 S 12 G 17 10.00 Mostly Cloudy BKN019 BKN080 69.8 62.6 78% 29.78 0.0
06 14:35 S 9 10.00 Mostly Cloudy SCT017 BKN070 69.8 62.6 78% 29.79 0.0
06 14:15 S 14 G 18 10.00 Overcast SCT017 BKN060 OVC070 68 62.6 83% 29.79 0.0
06 13:55 S 14 G 17 10.00 Overcast BKN017 OVC070 68 62.6 83% 29.79 0.0
06 13:35 S 15 G 18 10.00 Overcast OVC015 66.2 60.8 83% 29.8 0.0
06 13:15 S 14 G 20 10.00 Overcast OVC015 66.2 62.6 88% 29.8 0.0
06 12:55 S 15 G 22 10.00 Overcast OVC015 64.4 62.6 94% 29.8 0.0
06 12:35 S 15 G 21 10.00 Overcast OVC013 64.4 62.6 94% 29.8 0.0
06 12:15 S 15 G 18 10.00 Overcast OVC013 62.6 62.6 100% 29.81 0.0
06 11:55 S 15 G 18 10.00 Overcast OVC011 62.6 60.8 94% 29.8 0.0
06 11:35 S 14 G 21 10.00 Overcast OVC011 62.6 62.6 100% 29.81 0.0
06 11:15 S 12 10.00 Overcast OVC009 60.8 60.8 100% 29.8 0.0
06 10:55 S 12 G 20 10.00 Light Rain OVC009 60.8 60.8 100% 29.82 0.0 0.01
06 10:35 S 12 10.00 Light Rain BKN009 OVC013 60.8 60.8 100% 29.82 0.0 0.01
06 10:15 S 12 G 18 5.00 Light Rain BKN011 OVC024 60.8 60.8 100% 29.83 0.0 0.01
06 09:55 S 14 G 18 10.00 Light Rain BKN011 BKN036 OVC100 60.8 60.8 100% 29.83 0.0 0.06
06 09:35 S 13 10.00 Light Rain SCT013 SCT038 OVC100 60.8 60.8 100% 29.82 0.0 0.05
06 09:15 S 9 7.00 Rain OVC080 60.8 60.8 100% 29.83 0.0 0.03
06 08:55 S 13 7.00 Light Rain SCT080 OVC090 60.8 60.8 100% 29.85 0.0 0.05
06 08:35 S 8 10.00 Light Rain OVC100 60.8 60.8 100% 29.83 0.0 0.03
06 08:15 S 8 10.00 Light Rain OVC100 60.8 60.8 100% 29.83 0.0 0.03
06 07:55 S 7 10.00 Rain OVC100 60.8 60.8 100% 29.84 0.0 0.03
06 07:35 S 10 7.00 Light Rain OVC090 62.6 59 88% 29.83 0.0 0.01
06 07:15 S 9 G 16 10.00 Light Rain OVC100 64.4 59 83% 29.83 0.0
06 06:55 S 13 G 20 10.00 Overcast OVC110 64.4 57.2 78% 29.83 0.0
06 06:35 S 8 G 20 10.00 Overcast OVC110 64.4 57.2 78% 29.81 0.0
06 06:15 S 13 10.00 Light Rain BKN110 64.4 57.2 78% 29.8 0.0
06 05:55 S 14 10.00 Overcast SCT075 OVC110 66.2 57.2 73% 29.8 0.0
06 05:35 S 18 10.00 Overcast SCT075 BKN100 OVC120 66.2 55.4 68% 29.8 0.0
06 05:15 S 13 G 21 10.00 Overcast OVC100 66.2 55.4 68% 29.81 0.0
06 04:55 S 16 G 22 10.00 Mostly Cloudy BKN100 68 55.4 64% 29.81 0.0
06 04:35 S 15 G 24 10.00 Fair CLR 68 55.4 64% 29.81 0.0
06 04:15 S 18 G 26 10.00 Fair CLR 68 55.4 64% 29.82 0.0
06 03:55 S 17 G 25 10.00 Fair CLR 68 55.4 64% 29.81 0.0
06 03:35 S 16 G 25 10.00 Fair CLR 68 55.4 64% 29.81 0.0
06 03:15 S 21 G 25 10.00 Fair and Breezy CLR 68 55.4 64% 29.81 0.0
06 02:55 S 16 G 25 10.00 Partly Cloudy SCT110 68 53.6 60% 29.82 0.0
06 02:15 S 17 G 23 10.00 Fair CLR 69.8 53.6 57% 29.83 0.0
06 01:55 S 15 G 22 10.00 Fair CLR 69.8 53.6 57% 29.84 0.0
06 01:35 S 15 G 20 10.00 Fair CLR 69.8 53.6 57% 29.84 0.0
06 01:15 S 14 G 23 10.00 Partly Cloudy SCT120 69.8 53.6 57% 29.84 0.0
06 00:55 S 14 G 17 10.00 Fair CLR 69.8 53.6 57% 29.85 0.0
06 00:35 S 13 G 16 10.00 Fair CLR 71.6 53.6 53% 29.85 0.0
06 00:15 S 12 G 20 10.00 Fair CLR 71.6 51.8 50% 29.85 0.0
05 23:55 S 13 10.00 Fair CLR 71.6 51.8 50% 29.85 0.0
05 23:35 S 13 G 20 10.00 Fair CLR 71.6 50 47% 29.84 0.0
05 23:15 S 12 10.00 Fair CLR 71.6 50 47% 29.84 0.0
05 22:55 S 9 10.00 Fair CLR 71.6 50 47% 29.85 0.0
05 22:35 S 10 10.00 Fair CLR 71.6 48.2 44% 29.85 0.0
05 22:15 S 8 G 17 10.00 Fair CLR 71.6 48.2 44% 29.85 0.0
05 21:55 S 12 10.00 Fair CLR 73.4 48.2 41% 29.84 0.0
05 21:35 S 10 10.00 Fair CLR 73.4 48.2 41% 29.84 0.0
05 21:15 S 12 10.00 Fair CLR 73.4 46.4 38% 29.83 0.0
05 20:55 S 10 10.00 Fair CLR 75.2 46.4 36% 77 29.83 0.0
05 20:35 S 13 G 17 10.00 Fair CLR 77 44.6 32% 78 29.82 0.0
05 20:15 S 18 G 24 10.00 Fair CLR 77 44.6 32% 78 29.81 0.0
05 19:55 SW 13 G 22 10.00 Fair CLR 77 42.8 30% 78 29.81 0.0
05 19:35 S 17 G 24 10.00 Fair CLR 78.8 44.6 30% 79 29.81 0.0
05 19:15 S 16 G 22 10.00 Fair CLR 78.8 46.4 32% 79 29.8 0.0
05 18:55 S 12 G 28 10.00 Fair CLR 78.8 46.4 32% 79 29.8 0.0
05 18:35 S 18 G 30 10.00 Fair CLR 80.6 46.4 30% 80 29.8 0.0
05 18:15 S 17 G 26 10.00 Fair CLR 80.6 46.4 30% 80 29.81 0.0
05 17:55 SW 15 G 29 10.00 Fair CLR 80.6 46.4 30% 80 29.8 0.0
05 17:35 S 22 G 32 10.00 Fair and Breezy CLR 82.4 48.2 30% 81 29.8 0.0
05 17:15 S 23 G 33 10.00 Fair and Breezy CLR 80.6 48.2 32% 80 29.8 0.0
05 16:55 S 21 G 24 10.00 Fair and Breezy CLR 82.4 48.2 30% 81 29.8 0.0
05 16:35 S 21 G 28 10.00 Fair and Breezy CLR 82.4 48.2 30% 81 29.8 0.0
05 16:15 S 21 G 29 10.00 Fair and Breezy CLR 82.4 48.2 30% 81 29.8 0.0
05 15:55 S 23 G 30 10.00 Fair and Breezy CLR 84.2 50 31% 82 29.8 0.0
05 15:35 S 20 G 29 10.00 Fair CLR 84.2 51.8 33% 82 29.81 0.0
05 15:15 S 15 G 32 10.00 Fair CLR 82.4 51.8 35% 81 29.82 0.0
05 14:55 SW 14 G 25 10.00 Fair CLR 84.2 53.6 35% 83 29.83 0.0
05 14:35 SW 14 G 29 10.00 Fair CLR 82.4 53.6 37% 81 29.83 0.0
05 14:15 S 17 G 23 10.00 Fair CLR 82.4 53.6 37% 81 29.84 0.0
05 13:55 SW 15 G 21 10.00 Fair CLR 82.4 53.6 37% 81 29.85 0.0
05 13:35 S 13 G 21 10.00 Fair CLR 82.4 51.8 35% 81 29.86 0.0
05 13:15 SW 14 G 23 10.00 Fair CLR 82.4 51.8 35% 81 29.86 0.0
05 12:55 S 8 G 20 10.00 Fair CLR 80.6 51.8 37% 80 29.87 0.0
05 12:35 S 3 G 18 10.00 Fair CLR 80.6 51.8 37% 80 29.88 0.0
05 12:15 SW 8 G 22 10.00 Fair CLR 80.6 51.8 37% 80 29.89 0.0
05 11:55 S 10 G 21 10.00 Fair CLR 78.8 51.8 39% 79 29.89 0.0
05 11:35 S 15 G 21 10.00 Fair CLR 78.8 53.6 42% 79 29.9 0.0
05 11:15 S 12 G 21 10.00 Fair CLR 77 53.6 44% 78 29.9 0.0
05 10:55 S 13 G 16 10.00 Fair CLR 77 53.6 44% 78 29.89 0.0
05 10:35 S 12 10.00 Fair CLR 75.2 53.6 47% 78 29.89 0.0
05 10:15 S 8 10.00 Fair CLR 75.2 53.6 47% 78 29.9 0.0
05 09:55 S 7 10.00 Fair CLR 73.4 53.6 50% 29.9 0.0
05 09:35 SW 8 10.00 Fair CLR 71.6 53.6 53% 29.9 0.0
05 09:15 S 8 10.00 Fair CLR 69.8 53.6 57% 29.9 0.0
05 08:55 SW 5 10.00 Fair CLR 68 53.6 60% 29.9 0.0
05 08:35 SW 5 10.00 Fair CLR 64.4 51.8 64% 29.91 0.0
05 08:15 SW 6 10.00 Fair CLR 62.6 51.8 68% 29.91 0.0
05 07:55 SW 7 10.00 Fair CLR 60.8 50 68% 29.91 0.0
05 07:35 S 9 10.00 Fair CLR 60.8 50 68% 29.9 0.0
05 07:15 S 9 10.00 Fair CLR 59 50 72% 29.9 0.0
05 06:55 S 7 10.00 Fair CLR 59 50 72% 29.89 0.0
05 06:35 S 9 10.00 Fair CLR 59 50 72% 29.88 0.0
05 06:15 S 8 10.00 Fair CLR 57.2 50 77% 29.88 0.0
05 05:55 S 6 10.00 Fair CLR 55.4 50 82% 29.87 0.0
05 05:35 S 6 10.00 Fair CLR 55.4 50 82% 29.87 0.0
05 05:15 S 7 10.00 Fair CLR 57.2 50 77% 29.87 0.0
05 04:55 S 7 10.00 Fair CLR 57.2 50 77% 29.86 0.0
05 04:35 S 8 10.00 Fair CLR 59 51.8 77% 29.86 0.0
05 04:15 S 9 10.00 Fair CLR 57.2 51.8 82% 29.86 0.0
05 03:55 S 8 10.00 Fair CLR 57.2 51.8 82% 29.86 0.0
05 03:35 S 8 10.00 Fair CLR 59 51.8 77% 29.85 0.0
05 03:15 S 6 10.00 Fair CLR 57.2 51.8 82% 29.85 0.0
05 02:55 S 7 10.00 Fair CLR 59 51.8 77% 29.85 0.0
05 02:35 S 8 10.00 Fair CLR 59 51.8 77% 29.86 0.0
05 02:15 S 6 10.00 Fair CLR 59 51.8 77% 29.86 0.0
05 01:55 S 8 10.00 Fair CLR 60.8 51.8 72% 29.86 0.0
05 01:35 S 6 10.00 Fair CLR 60.8 51.8 72% 29.85 0.0
05 01:15 S 6 10.00 Fair CLR 62.6 51.8 68% 29.85 0.0
05 00:55 S 3 10.00 Fair CLR 60.8 50 68% 29.85 0.0
05 00:35 S 3 10.00 Fair CLR 62.6 51.8 68% 29.86 0.0
05 00:15 SW 6 10.00 Fair CLR 62.6 51.8 68% 29.86 0.0
04 23:55 SW 8 10.00 Fair CLR 62.6 50 64% 29.86 0.0
04 23:35 SW 7 10.00 Partly Cloudy SCT100 64.4 50 60% 29.86 0.0
04 23:15 SW 7 10.00 Fair CLR 64.4 50 60% 29.85 0.0
04 22:55 SW 8 10.00 Fair CLR 64.4 50 60% 29.86 0.0
04 22:35 SW 8 10.00 Fair CLR 66.2 50 56% 29.86 0.0
04 22:15 SW 6 10.00 Fair CLR 66.2 50 56% 29.86 0.0
04 21:55 SW 8 10.00 Partly Cloudy SCT120 68 50 53% 29.85 0.0
04 21:35 SW 6 10.00 Partly Cloudy SCT120 68 50 53% 29.85 0.0
04 21:15 SW 7 10.00 Fair CLR 68 50 53% 29.84 0.0
04 20:55 SW 5 10.00 Fair CLR 69.8 50 50% 29.83 0.0
04 20:35 SW 12 G 20 10.00 Partly Cloudy SCT100 69.8 50 50% 29.83 0.0
04 20:15 S 13 G 20 10.00 Partly Cloudy SCT095 71.6 48.2 44% 29.83 0.0
04 19:55 S 14 G 20 10.00 Overcast OVC095 71.6 50 47% 29.83 0.0
04 19:35 S 12 G 22 10.00 Overcast OVC095 73.4 48.2 41% 29.83 0.0
04 19:15 S 15 G 22 10.00 Mostly Cloudy SCT095 BKN120 73.4 48.2 41% 29.82 0.0
04 18:55 S 16 G 21 10.00 Fair CLR 73.4 48.2 41% 29.81 0.0
04 18:35 S 21 G 26 10.00 Partly Cloudy and Breezy SCT100 75.2 46.4 36% 77 29.81 0.0
04 18:15 S 15 G 23 10.00 Partly Cloudy SCT100 75.2 46.4 36% 77 29.82 0.0
04 17:55 S 16 10.00 Partly Cloudy SCT095 77 46.4 34% 78 29.81 0.0
04 17:35 S 20 G 26 10.00 Partly Cloudy SCT095 77 46.4 34% 78 29.81 0.0
04 17:15 S 17 G 24 10.00 Fair CLR 78.8 46.4 32% 79 29.81 0.0
04 16:55 S 16 G 22 10.00 Fair CLR 78.8 46.4 32% 79 29.81 0.0
04 16:35 S 14 G 21 10.00 Fair CLR 77 46.4 34% 78 29.82 0.0
04 16:15 SW 12 G 20 10.00 Fair CLR 78.8 46.4 32% 79 29.83 0.0
04 15:55 S 9 G 18 10.00 Partly Cloudy SCT085 77 46.4 34% 78 29.83 0.0
04 15:35 S 15 G 21 10.00 Partly Cloudy SCT085 77 46.4 34% 78 29.85 0.0
04 15:15 S 7 G 10 10.00 Partly Cloudy SCT085 77 46.4 34% 78 29.85 0.0
04 14:55 S 9 G 16 10.00 Fair CLR 75.2 46.4 36% 77 29.86 0.0
04 14:35 SW 7 G 21 10.00 Fair CLR 77 46.4 34% 78 29.88 0.0
04 14:15 S 6 G 20 10.00 Fair CLR 75.2 46.4 36% 77 29.88 0.0
04 13:55 SW 12 G 20 10.00 Fair CLR 73.4 46.4 38% 29.9 0.0
04 13:35 SW 10 10.00 Fair CLR 73.4 46.4 38% 29.9 0.0
04 13:15 S 15 G 21 10.00 Fair CLR 71.6 46.4 41% 29.91 0.0
04 12:55 S 9 G 17 10.00 Fair CLR 69.8 42.8 38% 29.92 0.0
04 12:35 S 13 10.00 Fair CLR 69.8 44.6 40% 29.92 0.0
04 12:15 S 6 10.00 Fair CLR 69.8 42.8 38% 29.93 0.0
04 11:55 S 6 10.00 Fair CLR 69.8 42.8 38% 29.93 0.0
04 11:35 SW 10 10.00 Fair CLR 69.8 44.6 40% 29.94 0.0
04 11:15 S 7 10.00 Fair CLR 68 42.8 40% 29.95 0.0
04 10:55 S 8 10.00 Fair CLR 68 42.8 40% 29.95 0.0
04 10:35 SW 5 10.00 Fair CLR 66.2 42.8 43% 29.95 0.0
04 10:15 S 8 10.00 Fair CLR 64.4 41 43% 29.96 0.0
04 09:55 S 6 10.00 Fair CLR 60.8 42.8 52% 29.95 0.0
04 09:35 S 5 10.00 Fair CLR 59 41 51% 29.96 0.0
04 09:15 S 3 10.00 Fair CLR 57.2 41 55% 29.97 0.0
04 08:55 S 5 10.00 Fair CLR 55.4 41 59% 29.97 0.0
04 08:35 S 6 10.00 Fair CLR 53.6 41 63% 29.98 0.0
04 08:15 S 7 10.00 Partly Cloudy SCT120 51.8 41 67% 29.98 0.0
04 07:55 S 6 10.00 Partly Cloudy SCT090 SCT120 50 39.2 67% 48 29.98 0.0
04 07:35 S 3 10.00 Mostly Cloudy BKN090 BKN120 50 37.4 62% 29.98 0.0
04 07:15 S 3 10.00 Overcast OVC110 46.4 39.2 76% 30 0.0
04 06:55 Calm 10.00 Overcast OVC100 44.6 37.4 76% 29.99 0.0
04 06:35 SW 5 10.00 Mostly Cloudy BKN110 46.4 37.4 71% 45 29.99 0.0
04 06:15 S 3 10.00 Mostly Cloudy BKN120 46.4 37.4 71% 29.99 0.0
04 05:55 S 5 10.00 Overcast OVC110 46.4 37.4 71% 45 29.99 0.0
04 05:35 S 5 10.00 Overcast OVC100 48.2 37.4 66% 47 29.99 0.0
04 05:15 Calm 10.00 Overcast OVC090 46.4 37.4 71% 30 0.0
04 04:55 S 3 10.00 Overcast OVC090 46.4 37.4 71% 30 0.0
04 04:35 Calm 10.00 Overcast OVC090 46.4 37.4 71% 30 0.0
04 04:15 Calm 10.00 Overcast OVC090 48.2 35.6 62% 30 0.0
04 03:55 SE 3 10.00 Overcast OVC100 46.4 37.4 71% 30 0.0
04 03:35 Calm 10.00 Overcast OVC100 46.4 37.4 71% 30 0.0
04 03:15 SE 3 10.00 Overcast OVC100 46.4 37.4 71% 30 0.0
04 02:55 Calm 10.00 Overcast OVC100 46.4 37.4 71% 30 0.0
04 02:35 S 5 10.00 Overcast OVC110 48.2 35.6 62% 47 30 0.0
04 02:15 S 6 10.00 Overcast OVC120 46.4 35.6 66% 44 30 0.0
04 01:55 Calm 10.00 Mostly Cloudy BKN120 46.4 33.8 62% 30.01 0.0
04 01:35 Calm 10.00 Fair CLR 44.6 33.8 66% 30.01 0.0
04 01:15 SW 5 10.00 Fair CLR 42.8 33.8 71% 41 30.02 0.0
04 00:55 SW 3 10.00 Fair CLR 44.6 33.8 66% 30.02 0.0
04 00:35 SW 3 10.00 Fair CLR 44.6 33.8 66% 30.02 0.0
04 00:15 W 3 10.00 Fair CLR 42.8 33.8 71% 30.01 0.0
03 23:55 SW 3 10.00 Fair CLR 42.8 35.6 76% 30.01 0.0
03 23:35 SW 6 10.00 Fair CLR 44.6 33.8 66% 42 30.01 0.0
03 23:15 SW 5 10.00 Fair CLR 44.6 35.6 71% 43 30.01 0.0
03 22:55 SW 5 10.00 Fair CLR 44.6 35.6 71% 43 30 0.0
03 22:35 SW 3 10.00 Fair CLR 44.6 35.6 71% 30 0.0
03 22:15 SW 3 10.00 Fair CLR 46.4 35.6 66% 30 0.0
03 21:55 S 3 10.00 Fair CLR 48.2 33.8 58% 29.99 0.0
03 21:35 Calm 10.00 Fair CLR 50 33.8 54% 29.98 0.0
03 21:15 SW 3 10.00 Fair CLR 50 35.6 58% 29.98 0.0
03 20:55 W 5 10.00 Fair CLR 53.6 32 44% 29.98 0.0
03 20:35 Calm 10.00 Fair CLR 55.4 32 41% 29.97 0.0
03 20:15 W 6 10.00 Fair CLR 55.4 32 41% 29.97 0.0
Date Time (edt) Wind (mph) Vis. (mi.) Weather Sky Cond. Air Dwpt Max. Min. Relative Humidity Wind Chill (°F) Heat Index (°F) altimeter (in) sea level (mb) 1 hr 3 hr 6 hr
6 hour
Temperature (ºF) Pressure Precipitation (in)